WetterOnline ( http://www.wetteronline.de )

Wetter aktuell Rotterdam

Aktuelles Wetter: Rotterdam Flughafen (-4m)

6-stündlich | Neueste Meldungen
Ortszeit Temperatur Wetter
Mi, 22.08. 2:00 18.8° C bedeckt
Di, 21.08. 20:00 22.6° C wolkenlos
Di, 21.08. 14:00 24.7° C bedeckt
Di, 21.08. 8:00 17.4° C bewölkt
Di, 21.08. 2:00 17.6° C bedeckt
Mo, 20.08. 20:00 20.7° C bedeckt
Mo, 20.08. 14:00 22.3° C leicht bewölkt
Mo, 20.08. 8:00 19.1° C bedeckt
Ortszeit Temperatur Wetter
Mi, 22.08. 5:25 17° C bewölkt, Dunst
Mi, 22.08. 5:00 16.7° C Nebel
Mi, 22.08. 4:55 17° C Nebel
Mi, 22.08. 4:25 17° C bewölkt, Dunst
Mi, 22.08. 4:00 17.2° C fast wolkenlos
Mi, 22.08. 3:55 18° C leicht bewölkt, Dunst
Mi, 22.08. 3:25 17° C bewölkt, Dunst
Mi, 22.08. 3:00 18.0° C bewölkt
Mi, 22.08. 2:25 18° C -
Mi, 22.08. 2:00 18.8° C bedeckt
Ortszeit Relative Feuchte Sichtweite
Mi, 22.08. 2:00 93% 7 km
Di, 21.08. 20:00 73% 25 km
Di, 21.08. 14:00 63% 19 km
Di, 21.08. 8:00 97% 8 km
Di, 21.08. 2:00 89% 35 km
Mo, 20.08. 20:00 77% 45 km
Mo, 20.08. 14:00 66% 35 km
Mo, 20.08. 8:00 89% 30 km
Ortszeit Relative Feuchte Sichtweite
Mi, 22.08. 5:25 100% 2.6 km
Mi, 22.08. 5:00 100% 0.9 km
Mi, 22.08. 4:55 100% 0.9 km
Mi, 22.08. 4:25 94% 3.4 km
Mi, 22.08. 4:00 99% 3.6 km
Mi, 22.08. 3:55 100% 3.5 km
Mi, 22.08. 3:25 100% 5.0 km
Mi, 22.08. 3:00 96% 3.8 km
Mi, 22.08. 2:25 94% 7 km
Mi, 22.08. 2:00 93% 7 km
Ortszeit Niederschlagsmenge Niederschlagsart
Mi, 22.08. 2:00 0.0 l/m2 in 6 Std. -
Di, 21.08. 20:00 0.0 l/m2 in 12 Std. -
Di, 21.08. 14:00 0.0 l/m2 in 6 Std. -
Di, 21.08. 8:00 0.0 l/m2 in 12 Std. -
Di, 21.08. 2:00 0.0 l/m2 in 6 Std. -
Mo, 20.08. 20:00 0.0 l/m2 in 12 Std. -
Mo, 20.08. 14:00 0.0 l/m2 in 6 Std. -
Mo, 20.08. 8:00 0.0 l/m2 in 12 Std. -
Ortszeit Niederschlagsmenge Niederschlagsart
Mi, 22.08. 5:25 keine Meldung -
Mi, 22.08. 5:00 0.0 l/m2 in 1 Std. -
Mi, 22.08. 4:55 keine Meldung -
Mi, 22.08. 4:25 keine Meldung -
Mi, 22.08. 4:00 0.0 l/m2 in 1 Std. -
Mi, 22.08. 3:55 keine Meldung -
Mi, 22.08. 3:25 keine Meldung -
Mi, 22.08. 3:00 0.0 l/m2 in 1 Std. -
Mi, 22.08. 2:25 keine Meldung -
Mi, 22.08. 2:00 0.0 l/m2 in 1 Std. -
Ortszeit Stärke Spitze Richtung
km/h Bft. km/h Grad Sektor
Mi, 22.08. 2:00 4 1 11 260° W
Di, 21.08. 20:00 4 1 22 320° NW
Di, 21.08. 14:00 7 2 25 220° SW
Di, 21.08. 8:00 4 1 14 110° O
Di, 21.08. 2:00 7 2 14 110° O
Mo, 20.08. 20:00 4 1 22 290° W
Mo, 20.08. 14:00 7 2 18 280° W
Mo, 20.08. 8:00 11 2 25 310° NW
Ortszeit Stärke Spitze Richtung
km/h Bft. km/h Grad Sektor
Mi, 22.08. 5:25 2 1 - 270° W
Mi, 22.08. 5:00 4 1 7 240° SW
Mi, 22.08. 4:55 4 1 - 260° W
Mi, 22.08. 4:25 4 1 - 270° W
Mi, 22.08. 4:00 0 0 7 - -
Mi, 22.08. 3:55 0 0 - - -
Mi, 22.08. 3:25 6 1 - 260° W
Mi, 22.08. 3:00 7 2 7 260° W
Mi, 22.08. 2:25 2 1 - 300° NW
Mi, 22.08. 2:00 4 1 11 260° W
Ortszeit Untergrenze Bedeckung Gattung
total tief tief mittel hoch
Mi, 22.08. 2:00 - 8/8 8/8 - - -
Di, 21.08. 20:00 - 0/8 0/8 - - -
Di, 21.08. 14:00 - 8/8 8/8 - - -
Di, 21.08. 8:00 - 7/8 7/8 - - -
Di, 21.08. 2:00 - 8/8 8/8 - - -
Mo, 20.08. 20:00 - 8/8 8/8 - - -
Mo, 20.08. 14:00 750 m 4/8 4/8 - - -
Mo, 20.08. 8:00 - 8/8 8/8 - - -
Ortszeit Bedeckungsgrad in Achtel und Wolkenuntergrenze
Mi, 22.08. 5:25 5-7(900m) 5-7(1080m)
Mi, 22.08. 5:00 8
Mi, 22.08. 4:55 1-2(450m) 5-7(1020m)
Mi, 22.08. 4:25 1-2(450m) 5-7(1110m)
Mi, 22.08. 4:00 1(1500m)
Mi, 22.08. 3:55 1-2(450m)
Mi, 22.08. 3:25 3-4(1080m) 5-7(1290m)
Mi, 22.08. 3:00 7(1080m) 7(1350m)
Mi, 22.08. 2:25 keine Wolken(unter 1500 m)
Mi, 22.08. 2:00 8
Ortszeit Luftdruck NN (hPa) Tendenz (hPa in 3 Std.)
Mi, 22.08. 2:00 1019 0,0
Di, 21.08. 20:00 1019 - 0,9
Di, 21.08. 14:00 1020 - 0,7
Di, 21.08. 8:00 1021 0,0
Di, 21.08. 2:00 1021 - 0,1
Mo, 20.08. 20:00 1020 0,0
Mo, 20.08. 14:00 1020 + 0,3
Mo, 20.08. 8:00 1019 + 0,8
Ortszeit Luftdruck NN (hPa) Tendenz (hPa in 3 Std.)
Mi, 22.08. 5:25 1017 keine Meldung
Mi, 22.08. 5:00 1018 - 1,0
Mi, 22.08. 4:55 1017 keine Meldung
Mi, 22.08. 4:25 1018 keine Meldung
Mi, 22.08. 4:00 1018 - 0,9
Mi, 22.08. 3:55 1018 keine Meldung
Mi, 22.08. 3:25 1018 keine Meldung
Mi, 22.08. 3:00 1019 - 0,5
Mi, 22.08. 2:25 1018 keine Meldung
Mi, 22.08. 2:00 1019 0,0
Ortszeit Schneehöhe (cm)
Mi, 22.08. 2:00 -
Di, 21.08. 20:00 -
Di, 21.08. 14:00 -
Di, 21.08. 8:00 -
Di, 21.08. 2:00 -
Mo, 20.08. 20:00 -
Mo, 20.08. 14:00 -
Mo, 20.08. 8:00 -
Ortszeit Schneehöhe (cm)
Mi, 22.08. 5:25 -
Mi, 22.08. 5:00 -
Mi, 22.08. 4:55 -
Mi, 22.08. 4:25 -
Mi, 22.08. 4:00 -
Mi, 22.08. 3:55 -
Mi, 22.08. 3:25 -
Mi, 22.08. 3:00 -
Mi, 22.08. 2:25 -
Mi, 22.08. 2:00 -
Link zu dieser Seite / Seite empfehlen

Das Wetter in ...